Time;durP1;ratioP1;P1;durP2;ratioP2;P2;SDS_P1;SDS_P2;PMS_P1;PMS_P2;Temp;Humidity;BMP_temperature;BMP_pressure;BME280_temperature;BME280_humidity;BME280_pressure;Samples;Min_cycle;Max_cycle;Signal;HPM_P1;HPM_P2
2023/03/19 00:01:42;;;;;;;16.90;15.80;;;;;;;12.21;58.49;96382.69;5094000;28;20208;-70
2023/03/19 00:04:07;;;;;;;17.53;16.37;;;;;;;12.23;58.85;96385.06;5095038;28;20169;-70
2023/03/19 00:06:32;;;;;;;18.33;17.13;;;;;;;12.24;58.58;96378.78;5085676;28;20272;-71
2023/03/19 00:08:58;;;;;;;17.30;16.03;;;;;;;12.32;58.67;96373.06;5075198;28;20186;-70
2023/03/19 00:11:23;;;;;;;16.43;15.50;;;;;;;12.35;58.64;96377.84;5091255;28;20555;-70
2023/03/19 00:13:49;;;;;;;15.03;14.07;;;;;;;12.38;58.58;96378.13;5075389;28;20173;-70
2023/03/19 00:16:14;;;;;;;12.20;11.27;;;;;;;12.36;58.29;96385.50;5081295;28;20204;-70
2023/03/19 00:18:40;;;;;;;11.97;11.23;;;;;;;12.35;58.33;96383.13;5095129;28;20221;-71
2023/03/19 00:21:05;;;;;;;8.57;7.83;;;;;;;12.42;58.27;96379.25;5094767;28;20237;-71
2023/03/19 00:23:30;;;;;;;10.27;9.33;;;;;;;12.45;58.01;96380.59;5094851;28;20185;-71
2023/03/19 00:25:56;;;;;;;10.63;9.67;;;;;;;12.47;57.84;96381.94;5092771;28;20231;-70
2023/03/19 00:28:21;;;;;;;10.80;10.20;;;;;;;12.35;58.49;96380.47;5094282;28;20224;-70
2023/03/19 00:30:46;;;;;;;14.40;13.20;;;;;;;12.32;58.93;96381.75;5075585;28;20189;-70
2023/03/19 00:33:12;;;;;;;16.37;15.00;;;;;;;12.33;58.43;96393.06;5094681;28;20514;-70
2023/03/19 00:35:39;;;;;;;15.60;14.60;;;;;;;12.31;58.87;96387.28;5086497;28;20259;-71
2023/03/19 00:38:04;;;;;;;16.20;15.07;;;;;;;12.27;59.09;96383.53;5073748;28;20650;-71
2023/03/19 00:40:29;;;;;;;17.37;16.30;;;;;;;12.22;59.39;96389.53;5074703;28;20291;-70
2023/03/19 00:42:55;;;;;;;16.17;15.17;;;;;;;12.21;59.07;96385.31;5075629;28;20185;-71
2023/03/19 00:45:20;;;;;;;16.50;15.43;;;;;;;12.24;59.11;96391.94;5086269;28;20185;-71
2023/03/19 00:47:46;;;;;;;17.47;16.27;;;;;;;12.23;59.16;96390.34;5094505;28;20199;-73
2023/03/19 00:50:12;;;;;;;17.17;16.10;;;;;;;12.22;58.71;96389.53;5094241;28;20250;-71
2023/03/19 00:52:37;;;;;;;14.10;12.93;;;;;;;12.18;59.66;96388.44;5094677;28;20637;-71
2023/03/19 00:55:03;;;;;;;7.13;4.90;;;;;;;11.89;61.24;96392.31;5083296;28;20272;-71
2023/03/19 00:57:28;;;;;;;4.73;4.33;;;;;;;11.79;62.45;96385.09;5073893;28;20202;-70
2023/03/19 00:59:53;;;;;;;5.50;4.70;;;;;;;11.74;62.58;96395.53;5090685;28;20195;-71
2023/03/19 01:02:19;;;;;;;8.20;5.23;;;;;;;11.73;63.11;96396.56;5094021;28;20204;-70
2023/03/19 01:04:47;;;;;;;5.97;5.30;;;;;;;11.77;63.17;96399.50;5085469;28;20545;-71
2023/03/19 01:07:12;;;;;;;8.30;5.73;;;;;;;11.83;62.55;96398.53;5079304;28;20196;-70
2023/03/19 01:09:38;;;;;;;6.80;4.60;;;;;;;11.87;62.55;96403.03;5094090;28;20180;-70
2023/03/19 01:12:03;;;;;;;5.27;4.80;;;;;;;11.94;62.02;96408.91;5093917;28;20210;-70
2023/03/19 01:14:30;;;;;;;4.97;4.57;;;;;;;11.84;62.58;96403.53;5078845;28;20180;-70
2023/03/19 01:16:56;;;;;;;5.63;5.23;;;;;;;11.91;62.59;96408.63;5073582;28;20256;-71
2023/03/19 01:19:21;;;;;;;7.87;7.10;;;;;;;11.81;63.28;96411.13;5073295;28;20178;-71
2023/03/19 01:21:48;;;;;;;6.80;6.20;;;;;;;11.76;63.48;96414.44;5065117;28;20189;-71
2023/03/19 01:24:14;;;;;;;8.53;7.90;;;;;;;11.82;63.26;96405.59;5092978;28;20177;-71
2023/03/19 01:26:39;;;;;;;7.90;6.23;;;;;;;11.85;62.91;96413.00;5073021;28;20733;-73
2023/03/19 01:29:05;;;;;;;6.17;5.67;;;;;;;11.87;62.90;96410.16;5092118;28;20256;-71
2023/03/19 01:31:31;;;;;;;7.93;7.13;;;;;;;11.84;63.44;96414.03;5073704;28;20177;-71
2023/03/19 01:33:56;;;;;;;8.60;8.00;;;;;;;11.87;63.38;96421.41;5073086;28;20189;-71
2023/03/19 01:36:21;;;;;;;8.60;7.70;;;;;;;11.89;62.86;96427.22;5090635;28;20265;-70
2023/03/19 01:38:47;;;;;;;7.37;6.87;;;;;;;11.94;63.08;96431.75;5075861;28;20205;-71
2023/03/19 01:41:12;;;;;;;6.93;6.17;;;;;;;11.98;62.34;96436.28;5092100;28;20538;-71
2023/03/19 01:43:37;;;;;;;7.20;6.60;;;;;;;12.12;62.53;96439.34;5093024;28;20217;-71
2023/03/19 01:46:10;;;;;;;7.53;6.93;;;;;;;12.08;63.12;96435.63;5078715;28;20222;-71
2023/03/19 01:48:43;;;;;;;10.10;9.27;;;;;;;11.89;64.16;96437.75;5073473;28;20173;-71
2023/03/19 01:51:11;;;;;;;15.13;13.83;;;;;;;11.89;64.35;96440.38;5073226;28;20189;-70
2023/03/19 01:53:39;;;;;;;16.27;15.07;;;;;;;11.90;64.72;96446.41;5072691;28;20192;-71
2023/03/19 01:56:15;;;;;;;14.53;13.30;;;;;;;11.74;65.15;96445.44;5087150;28;20200;-71
2023/03/19 01:58:44;;;;;;;11.77;10.97;;;;;;;11.66;64.91;96445.78;5057177;28;20181;-70
2023/03/19 02:01:09;;;;;;;12.10;11.07;;;;;;;11.69;64.42;96445.31;5073267;28;20185;-71
2023/03/19 02:03:37;;;;;;;13.90;12.73;;;;;;;11.63;63.42;96438.41;5073177;28;20637;-71
2023/03/19 02:06:03;;;;;;;12.03;11.27;;;;;;;11.61;63.57;96435.22;5073554;28;20197;-71
2023/03/19 02:08:30;;;;;;;11.13;10.33;;;;;;;11.55;64.30;96436.97;5073931;28;20177;-70
2023/03/19 02:10:59;;;;;;;7.47;6.83;;;;;;;11.59;64.66;96445.94;5073300;28;20235;-70
2023/03/19 02:13:25;;;;;;;7.10;6.27;;;;;;;11.61;66.27;96445.72;5055563;28;20181;-71
2023/03/19 02:15:50;;;;;;;6.60;6.10;;;;;;;11.61;67.16;96450.97;5084338;28;20204;-71
2023/03/19 02:18:17;;;;;;;6.77;6.17;;;;;;;11.50;69.48;96441.38;5076433;28;20177;-71
2023/03/19 02:20:59;;;;;;;5.77;5.27;;;;;;;11.46;71.03;96448.94;5080405;28;20185;-70
2023/03/19 02:23:50;;;;;;;7.07;6.57;;;;;;;11.50;73.93;96446.59;5081029;28;20208;-70
2023/03/19 02:26:19;;;;;;;8.63;8.03;;;;;;;11.32;79.25;96450.28;5072482;28;20588;-71
2023/03/19 02:28:47;;;;;;;14.03;13.07;;;;;;;11.34;83.46;96447.41;5072315;28;20189;-70
2023/03/19 02:31:13;;;;;;;7.73;7.13;;;;;;;11.32;85.52;96444.22;5082145;28;20184;-70
2023/03/19 02:33:39;;;;;;;6.33;5.87;;;;;;;11.19;89.25;96448.00;5092095;28;20263;-70
2023/03/19 02:36:10;;;;;;;7.90;7.20;;;;;;;11.10;94.22;96457.25;5092545;28;20200;-70
2023/03/19 02:38:37;;;;;;;7.40;6.67;;;;;;;11.06;99.33;96459.56;5088004;28;20180;-70
2023/03/19 02:41:06;;;;;;;6.50;5.67;;;;;;;11.06;100.00;96459.56;5083166;28;20181;-71
2023/03/19 02:43:37;;;;;;;9.63;9.07;;;;;;;10.95;100.00;96467.50;5054515;28;20208;-70
2023/03/19 02:46:05;;;;;;;7.60;7.10;;;;;;;11.05;100.00;96467.66;5074930;28;20564;-70
2023/03/19 02:48:31;;;;;;;7.03;6.53;;;;;;;11.14;100.00;96455.78;5091931;28;20637;-70
2023/03/19 02:50:57;;;;;;;8.23;7.63;;;;;;;11.22;100.00;96469.28;5083749;28;20255;-70
2023/03/19 02:53:23;;;;;;;6.57;6.07;;;;;;;11.29;100.00;96470.97;5072864;28;20204;-71
2023/03/19 02:55:48;;;;;;;7.43;6.93;;;;;;;11.26;100.00;96470.38;5072338;28;20209;-71
2023/03/19 02:58:14;;;;;;;6.47;5.97;;;;;;;11.25;100.00;96471.44;5054375;28;20639;-71
2023/03/19 03:00:40;;;;;;;6.13;5.73;;;;;;;11.24;99.21;96475.09;5085816;28;20218;-70
2023/03/19 03:03:06;;;;;;;6.33;5.93;;;;;;;11.19;100.00;96475.03;5078574;28;20177;-71
2023/03/19 03:05:32;;;;;;;9.90;9.33;;;;;;;11.15;100.00;96471.25;5073482;28;20267;-71
2023/03/19 03:07:58;;;;;;;9.47;8.93;;;;;;;11.14;100.00;96471.53;5071764;28;20201;-71
2023/03/19 03:10:23;;;;;;;7.87;7.37;;;;;;;11.11;100.00;96471.97;5083496;28;20649;-71
2023/03/19 03:12:49;;;;;;;10.47;9.77;;;;;;;11.13;100.00;96464.69;5090161;28;20184;-70
2023/03/19 03:15:14;;;;;;;7.37;6.97;;;;;;;11.09;100.00;96458.31;5072697;28;20642;-70
2023/03/19 03:17:43;;;;;;;6.43;6.00;;;;;;;11.15;100.00;96452.91;5072276;28;20194;-71
2023/03/19 03:20:10;;;;;;;5.83;5.43;;;;;;;11.05;100.00;96454.56;5084858;28;20189;-71
2023/03/19 03:22:38;;;;;;;5.40;5.00;;;;;;;10.89;100.00;96465.81;5074770;28;20255;-71
2023/03/19 03:25:04;;;;;;;6.00;5.53;;;;;;;10.81;100.00;96470.41;5091660;28;20259;-71
2023/03/19 03:27:30;;;;;;;6.03;4.83;;;;;;;10.78;100.00;96477.97;5091953;28;20188;-71
2023/03/19 03:29:55;;;;;;;6.07;5.67;;;;;;;10.68;100.00;96486.44;5079746;28;20315;-71
2023/03/19 03:32:21;;;;;;;6.00;5.50;;;;;;;10.65;100.00;96484.28;5076034;28;20264;-71
2023/03/19 03:34:46;;;;;;;5.83;5.33;;;;;;;10.64;100.00;96477.47;5093023;28;20192;-71
2023/03/19 03:37:12;;;;;;;6.10;5.70;;;;;;;10.46;100.00;96469.78;5075671;28;20627;-71
2023/03/19 03:39:37;;;;;;;7.07;6.37;;;;;;;10.42;100.00;96466.81;5075578;28;20240;-72
2023/03/19 03:42:03;;;;;;;6.37;5.77;;;;;;;10.42;100.00;96463.41;5075726;28;20223;-71
2023/03/19 03:44:28;;;;;;;6.53;6.03;;;;;;;10.40;100.00;96465.47;5075766;28;20707;-71
2023/03/19 03:46:54;;;;;;;6.73;6.13;;;;;;;10.30;100.00;96470.50;5076698;28;20541;-71
2023/03/19 03:49:19;;;;;;;6.57;6.07;;;;;;;10.30;100.00;96473.13;5079760;28;20338;-72
2023/03/19 03:51:45;;;;;;;6.67;6.07;;;;;;;10.44;100.00;96474.44;5095377;28;20633;-71
2023/03/19 03:54:10;;;;;;;6.70;5.97;;;;;;;10.51;100.00;96475.13;5094891;28;20181;-72
2023/03/19 03:56:36;;;;;;;6.80;6.20;;;;;;;10.36;100.00;96480.06;5094817;28;20216;-72
2023/03/19 03:59:02;;;;;;;6.40;5.87;;;;;;;10.44;100.00;96479.69;5093419;28;20207;-72
2023/03/19 04:01:28;;;;;;;6.30;5.80;;;;;;;10.43;100.00;96486.75;5080231;28;20672;-72
2023/03/19 04:03:53;;;;;;;6.33;5.83;;;;;;;10.32;100.00;96481.53;5087312;28;20181;-71
2023/03/19 04:06:21;;;;;;;6.13;5.63;;;;;;;10.31;100.00;96487.78;5057235;28;20192;-71
2023/03/19 04:08:46;;;;;;;7.13;6.43;;;;;;;10.31;100.00;96490.41;5075140;28;20187;-72
2023/03/19 04:11:12;;;;;;;5.60;5.20;;;;;;;10.37;100.00;96492.91;5093744;28;20553;-72
2023/03/19 04:13:38;;;;;;;7.20;5.23;;;;;;;10.38;100.00;96481.41;5095014;28;20721;-71
2023/03/19 04:16:05;;;;;;;6.57;5.97;;;;;;;10.45;100.00;96485.72;5095052;28;20561;-72
2023/03/19 04:18:30;;;;;;;6.30;5.70;;;;;;;10.40;100.00;96487.22;5093683;28;20267;-71
2023/03/19 04:20:56;;;;;;;5.97;5.57;;;;;;;10.26;100.00;96498.97;5077829;28;20265;-71
2023/03/19 04:23:22;;;;;;;6.20;5.63;;;;;;;10.22;100.00;96495.25;5074834;28;20196;-71
2023/03/19 04:25:47;;;;;;;6.93;6.43;;;;;;;10.24;100.00;96500.25;5074536;28;20590;-71
2023/03/19 04:28:12;;;;;;;6.40;5.90;;;;;;;10.17;100.00;96494.34;5079358;28;20635;-72
2023/03/19 04:30:38;;;;;;;7.07;6.47;;;;;;;10.11;100.00;96496.03;5094740;28;20587;-71
2023/03/19 04:33:03;;;;;;;7.07;6.53;;;;;;;10.02;100.00;96492.97;5082138;28;20264;-71
2023/03/19 04:35:29;;;;;;;7.37;6.70;;;;;;;9.97;100.00;96498.06;5074717;28;20310;-71
2023/03/19 04:37:55;;;;;;;6.73;6.00;;;;;;;9.99;100.00;96497.84;5076238;28;20217;-71
2023/03/19 04:40:20;;;;;;;8.00;7.40;;;;;;;10.06;100.00;96497.75;5075431;28;20185;-71
2023/03/19 04:42:45;;;;;;;8.30;7.70;;;;;;;9.99;100.00;96510.94;5094737;28;20176;-71
2023/03/19 04:45:11;;;;;;;8.27;7.47;;;;;;;9.90;100.00;96510.50;5094610;28;20672;-71
2023/03/19 04:47:36;;;;;;;9.33;8.47;;;;;;;9.75;100.00;96512.00;5077787;28;20193;-71
2023/03/19 04:50:02;;;;;;;8.50;7.67;;;;;;;9.74;100.00;96519.06;5074377;28;20178;-71
2023/03/19 04:52:28;;;;;;;8.97;8.30;;;;;;;9.85;100.00;96512.22;5074678;28;20260;-72
2023/03/19 04:54:54;;;;;;;8.93;8.13;;;;;;;9.82;100.00;96510.03;5073591;28;20234;-72
2023/03/19 04:57:20;;;;;;;7.93;7.33;;;;;;;9.72;100.00;96518.47;5087981;28;20200;-71
2023/03/19 04:59:45;;;;;;;8.33;7.73;;;;;;;9.72;100.00;96518.47;5075666;28;20189;-72
2023/03/19 05:02:11;;;;;;;8.63;8.03;;;;;;;9.73;100.00;96516.66;5084061;28;20188;-71
2023/03/19 05:04:37;;;;;;;8.83;8.13;;;;;;;9.79;100.00;96521.78;5088111;28;20184;-71
2023/03/19 05:07:02;;;;;;;9.60;8.10;;;;;;;9.64;100.00;96526.66;5093223;28;20197;-71
2023/03/19 05:09:29;;;;;;;8.57;7.87;;;;;;;9.65;100.00;96532.69;5074853;28;20197;-71
2023/03/19 05:11:55;;;;;;;8.73;7.97;;;;;;;9.69;100.00;96529.41;5073987;28;20514;-71
2023/03/19 05:14:20;;;;;;;8.77;7.33;;;;;;;9.82;100.00;96533.59;5073841;28;20208;-71
2023/03/19 05:16:46;;;;;;;8.53;7.83;;;;;;;9.81;100.00;96529.38;5074575;28;20671;-72
2023/03/19 05:19:11;;;;;;;9.30;8.50;;;;;;;9.70;100.00;96538.81;5074132;28;20215;-72
2023/03/19 05:21:36;;;;;;;10.10;9.23;;;;;;;9.77;100.00;96536.91;5073649;28;20215;-72
2023/03/19 05:24:02;;;;;;;9.63;8.13;;;;;;;9.73;100.00;96545.44;5073516;28;20181;-72
2023/03/19 05:26:27;;;;;;;8.67;7.87;;;;;;;9.73;100.00;96542.81;5084167;28;20272;-72
2023/03/19 05:28:52;;;;;;;8.13;7.43;;;;;;;9.73;100.00;96548.06;5077935;28;20626;-73
2023/03/19 05:31:18;;;;;;;7.20;6.60;;;;;;;9.55;100.00;96535.88;5093173;28;20237;-72
2023/03/19 05:33:43;;;;;;;6.80;6.30;;;;;;;9.56;100.00;96540.06;5085339;28;20177;-72
2023/03/19 05:36:11;;;;;;;9.30;6.73;;;;;;;9.49;100.00;96552.47;5085173;28;20605;-71
2023/03/19 05:38:36;;;;;;;6.97;6.37;;;;;;;9.53;100.00;96543.94;5073095;28;20630;-71
2023/03/19 05:41:05;;;;;;;6.60;6.00;;;;;;;9.60;100.00;96543.81;5084766;28;20214;-71
2023/03/19 05:43:32;;;;;;;6.37;5.83;;;;;;;9.59;100.00;96550.88;5092485;28;20184;-71
2023/03/19 05:45:57;;;;;;;6.37;5.77;;;;;;;9.58;100.00;96549.28;5086051;28;20649;-71
2023/03/19 05:48:23;;;;;;;8.87;5.47;;;;;;;9.56;100.00;96551.34;5080012;28;20176;-71
2023/03/19 05:50:49;;;;;;;8.30;5.90;;;;;;;9.56;100.00;96547.94;5093472;28;20183;-71
2023/03/19 05:53:14;;;;;;;6.30;5.57;;;;;;;9.61;100.00;96550.66;5093357;28;20192;-72
2023/03/19 05:55:40;;;;;;;7.57;5.77;;;;;;;9.72;100.00;96562.16;5087989;28;20279;-71
2023/03/19 05:58:06;;;;;;;6.63;5.93;;;;;;;9.62;100.00;96556.69;5073071;28;20197;-71
2023/03/19 06:00:32;;;;;;;7.33;6.63;;;;;;;9.68;100.00;96558.41;5072336;28;20291;-71
2023/03/19 06:02:57;;;;;;;7.53;6.90;;;;;;;9.66;100.00;96561.25;5086137;28;20212;-72
2023/03/19 06:05:22;;;;;;;7.20;6.60;;;;;;;9.67;100.00;96568.06;5093329;28;20251;-72
2023/03/19 06:07:48;;;;;;;7.20;6.40;;;;;;;9.61;100.00;96563.75;5090486;28;20575;-72
2023/03/19 06:10:13;;;;;;;7.23;6.63;;;;;;;9.58;100.00;96556.34;5082831;28;20177;-72
2023/03/19 06:12:39;;;;;;;7.13;6.43;;;;;;;9.61;100.00;96568.97;5072460;28;20188;-73
2023/03/19 06:15:05;;;;;;;6.33;5.77;;;;;;;9.74;100.00;96574.00;5087313;28;20282;-72
2023/03/19 06:17:31;;;;;;;7.10;6.43;;;;;;;9.67;100.00;96573.31;5059671;28;20204;-72
2023/03/19 06:19:56;;;;;;;7.67;6.30;;;;;;;9.63;100.00;96582.66;5093218;28;20206;-72
2023/03/19 06:22:21;;;;;;;7.00;6.37;;;;;;;9.62;100.00;96577.63;5087610;28;20177;-72
2023/03/19 06:24:47;;;;;;;6.80;6.00;;;;;;;9.66;100.00;96576.94;5075171;28;20183;-73
2023/03/19 06:27:12;;;;;;;6.23;5.63;;;;;;;9.62;100.00;96582.84;5065272;28;20613;-73
2023/03/19 06:29:38;;;;;;;5.87;5.33;;;;;;;9.95;100.00;96580.50;5053025;28;20205;-72
2023/03/19 06:32:04;;;;;;;5.30;4.90;;;;;;;9.81;100.00;96585.16;5054431;28;20181;-73
2023/03/19 06:34:29;;;;;;;6.00;5.50;;;;;;;9.95;100.00;96578.69;5053513;28;20649;-72
2023/03/19 06:36:55;;;;;;;5.73;5.23;;;;;;;9.89;100.00;96584.03;5062240;28;20205;-73
2023/03/19 06:39:21;;;;;;;6.37;5.80;;;;;;;9.91;100.00;96587.22;5052797;28;20178;-72
2023/03/19 06:41:46;;;;;;;6.70;6.10;;;;;;;9.99;100.00;96582.44;5053379;28;20468;-73
2023/03/19 06:44:11;;;;;;;6.10;5.00;;;;;;;10.12;100.00;96586.66;5052788;28;20178;-72
2023/03/19 06:46:37;;;;;;;8.07;7.57;;;;;;;10.11;100.00;96584.25;5052736;28;20639;-73
2023/03/19 06:49:02;;;;;;;7.97;7.27;;;;;;;10.18;100.00;96588.41;5052976;28;20186;-72
2023/03/19 06:51:27;;;;;;;7.00;6.40;;;;;;;10.19;100.00;96586.56;5053842;28;20696;-72
2023/03/19 06:53:53;;;;;;;8.73;7.93;;;;;;;10.21;100.00;96585.31;5052751;28;20246;-73
2023/03/19 06:56:19;;;;;;;7.37;6.67;;;;;;;10.13;100.00;96583.03;5053212;28;20202;-73
2023/03/19 06:58:45;;;;;;;6.00;5.50;;;;;;;10.30;100.00;96585.78;5052496;28;20193;-73
2023/03/19 07:01:10;;;;;;;5.60;5.10;;;;;;;10.38;100.00;96588.81;5052162;28;20261;-71
2023/03/19 07:03:35;;;;;;;5.60;5.20;;;;;;;10.42;100.00;96589.19;5053852;28;20268;-72
2023/03/19 07:06:01;;;;;;;7.73;6.97;;;;;;;10.46;100.00;96579.81;5060296;28;20185;-72
2023/03/19 07:08:28;;;;;;;8.07;7.27;;;;;;;10.65;100.00;96586.50;5075764;28;20589;-71
2023/03/19 07:11:05;;;;;;;7.57;5.97;;;;;;;10.68;100.00;96591.28;5075622;28;20177;-71
2023/03/19 07:13:30;;;;;;;6.93;6.43;;;;;;;10.76;100.00;96596.16;5058948;28;20196;-71
2023/03/19 07:15:55;;;;;;;5.53;5.13;;;;;;;10.72;100.00;96586.38;5058106;28;20197;-72
2023/03/19 07:18:21;;;;;;;7.07;6.00;;;;;;;10.61;100.00;96584.56;5075771;28;20188;-72
2023/03/19 07:20:46;;;;;;;6.90;5.90;;;;;;;10.76;100.00;96582.25;5061687;28;20584;-71
2023/03/19 07:23:12;;;;;;;5.60;5.10;;;;;;;10.59;100.00;96590.03;5055900;28;20260;-73
2023/03/19 07:25:37;;;;;;;5.03;4.63;;;;;;;10.72;100.00;96586.38;5060263;28;20245;-73
2023/03/19 07:28:03;;;;;;;9.83;6.07;;;;;;;10.87;100.00;96591.13;5080932;28;20182;-72
2023/03/19 07:30:28;;;;;;;6.67;5.97;;;;;;;10.74;100.00;96602.66;5095692;28;20177;-71
2023/03/19 07:32:54;;;;;;;5.93;4.93;;;;;;;10.74;100.00;96597.44;5095993;28;20645;-71
2023/03/19 07:35:20;;;;;;;6.40;5.80;;;;;;;10.92;100.00;96599.91;5083088;28;20260;-71
2023/03/19 07:37:45;;;;;;;5.87;5.20;;;;;;;10.93;100.00;96601.47;5081497;28;20696;-74
2023/03/19 07:40:11;;;;;;;5.83;5.33;;;;;;;10.94;100.00;96604.88;5075966;28;20204;-72
2023/03/19 07:42:37;;;;;;;8.80;4.83;;;;;;;10.79;100.00;96606.19;5075691;28;20173;-71
2023/03/19 07:45:03;;;;;;;9.23;5.90;;;;;;;10.84;100.00;96602.88;5081224;28;20659;-72
2023/03/19 07:47:29;;;;;;;6.17;5.67;;;;;;;10.71;100.00;96605.75;5096563;28;20188;-71
2023/03/19 07:49:55;;;;;;;6.90;5.67;;;;;;;10.81;100.00;96608.59;5080416;28;20185;-70
2023/03/19 07:52:21;;;;;;;8.67;5.13;;;;;;;10.83;100.00;96607.31;5075465;28;20186;-71
2023/03/19 07:54:46;;;;;;;7.17;5.87;;;;;;;10.86;100.00;96606.06;5080848;28;20228;-71
2023/03/19 07:57:11;;;;;;;7.00;5.60;;;;;;;10.87;100.00;96612.88;5077172;28;20236;-70
2023/03/19 07:59:37;;;;;;;5.40;4.93;;;;;;;10.92;100.00;96605.13;5094823;28;20211;-71
2023/03/19 08:02:03;;;;;;;5.70;5.30;;;;;;;11.04;100.00;96605.06;5094987;28;20641;-71
2023/03/19 08:04:28;;;;;;;5.93;4.90;;;;;;;10.89;100.00;96610.84;5078715;28;20226;-71
2023/03/19 08:06:54;;;;;;;6.07;5.43;;;;;;;10.80;100.00;96614.84;5094937;28;20194;-71
2023/03/19 08:09:19;;;;;;;5.13;4.63;;;;;;;10.98;100.00;96611.28;5095381;28;20207;-71
2023/03/19 08:11:45;;;;;;;5.03;4.53;;;;;;;11.13;100.00;96612.34;5095050;28;20237;-71
2023/03/19 08:14:10;;;;;;;6.17;5.60;;;;;;;11.23;100.00;96609.91;5093440;28;20199;-72
2023/03/19 08:16:36;;;;;;;6.83;6.23;;;;;;;11.24;100.00;96610.72;5075685;28;20248;-72
2023/03/19 08:19:01;;;;;;;8.37;7.67;;;;;;;11.19;100.00;96610.63;5074950;28;20177;-71
2023/03/19 08:21:26;;;;;;;8.20;6.60;;;;;;;11.36;100.00;96610.66;5075184;28;20193;-72
2023/03/19 08:23:52;;;;;;;11.13;10.37;;;;;;;11.59;100.00;96602.69;5057035;28;20188;-72
2023/03/19 08:26:18;;;;;;;64.90;61.20;;;;;;;11.63;100.00;96607.22;5084749;28;20224;-74
2023/03/19 08:28:43;;;;;;;73.77;69.83;;;;;;;11.63;100.00;96611.66;5089861;28;20239;-72
2023/03/19 08:31:11;;;;;;;23.47;22.17;;;;;;;11.66;100.00;96613.81;5074762;28;20185;-72
2023/03/19 08:33:37;;;;;;;10.10;6.63;;;;;;;12.31;100.00;96605.41;5070288;28;20227;-72
2023/03/19 08:36:08;;;;;;;9.87;9.17;;;;;;;13.81;99.56;96611.84;5093096;28;20193;-70
2023/03/19 08:38:34;;;;;;;10.40;9.40;;;;;;;13.72;91.42;96599.13;5074232;28;20193;-73
2023/03/19 08:41:01;;;;;;;6.70;6.20;;;;;;;13.29;91.29;96604.53;5074606;28;20218;-74
2023/03/19 08:43:27;;;;;;;5.63;5.23;;;;;;;12.97;92.55;96601.78;5086987;28;20180;-72
2023/03/19 08:45:53;;;;;;;5.73;5.23;;;;;;;12.53;96.74;96603.59;5093695;28;20180;-73
2023/03/19 08:48:18;;;;;;;5.20;4.80;;;;;;;12.67;94.21;96599.56;5075299;28;20715;-73
2023/03/19 08:50:43;;;;;;;5.40;5.00;;;;;;;12.59;94.09;96615.78;5074565;28;20173;-73
2023/03/19 08:53:09;;;;;;;5.30;4.87;;;;;;;12.55;95.65;96611.22;5083880;28;20698;-73
2023/03/19 08:55:34;;;;;;;5.90;5.40;;;;;;;12.49;96.20;96621.69;5094016;28;20601;-73
2023/03/19 08:57:59;;;;;;;6.47;5.90;;;;;;;12.74;94.82;96610.72;5075874;28;20590;-73
2023/03/19 09:00:26;;;;;;;5.97;5.47;;;;;;;12.73;94.33;96614.38;5076340;28;20522;-72
2023/03/19 09:02:51;;;;;;;5.03;4.63;;;;;;;12.66;94.13;96620.84;5087179;28;20204;-72
2023/03/19 09:05:21;;;;;;;5.63;5.13;;;;;;;12.57;95.40;96625.72;5093694;28;20189;-73
2023/03/19 09:07:46;;;;;;;5.73;5.30;;;;;;;12.63;95.49;96622.13;5093892;28;20199;-74
2023/03/19 09:10:12;;;;;;;6.10;5.60;;;;;;;12.74;95.76;96626.50;5093667;28;20176;-73
2023/03/19 09:12:37;;;;;;;5.40;5.00;;;;;;;12.89;93.47;96628.50;5085560;28;20181;-74
2023/03/19 09:15:03;;;;;;;5.93;5.33;;;;;;;12.98;92.08;96634.16;5092207;28;20216;-73
2023/03/19 09:17:28;;;;;;;5.50;5.00;;;;;;;13.00;92.36;96629.41;5073810;28;20290;-73
2023/03/19 09:19:53;;;;;;;5.80;5.20;;;;;;;13.03;93.17;96624.47;5073709;28;20196;-74
2023/03/19 09:22:19;;;;;;;6.97;4.43;;;;;;;12.98;93.57;96631.53;5073549;28;20272;-79
2023/03/19 09:24:44;;;;;;;6.07;5.47;;;;;;;13.02;92.25;96628.16;5056279;28;20173;-74
2023/03/19 09:27:10;;;;;;;5.83;5.23;;;;;;;13.09;92.42;96627.97;5072851;28;20228;-73
2023/03/19 09:29:35;;;;;;;7.93;5.27;;;;;;;12.87;93.70;96625.34;5077749;28;20190;-72
2023/03/19 09:32:00;;;;;;;5.53;5.10;;;;;;;13.05;94.14;96630.28;5080669;28;20192;-72
2023/03/19 09:34:26;;;;;;;6.07;5.57;;;;;;;13.10;93.68;96632.97;5081151;28;20185;-74
2023/03/19 09:36:51;;;;;;;5.40;4.90;;;;;;;13.31;92.84;96629.56;5086603;28;20295;-73
2023/03/19 09:39:17;;;;;;;5.47;5.03;;;;;;;13.54;90.38;96623.19;5092566;28;20363;-78
2023/03/19 09:42:07;;;;;;;5.33;4.93;;;;;;;13.64;88.70;96623.31;5092848;28;20207;-73
2023/03/19 09:44:44;;;;;;;6.60;5.27;;;;;;;13.54;88.91;96623.19;5075512;28;20176;-72
2023/03/19 09:47:09;;;;;;;5.07;4.67;;;;;;;13.61;89.06;96625.63;5093036;28;20643;-74
2023/03/19 09:49:43;;;;;;;5.30;4.50;;;;;;;13.57;89.58;96621.91;5093038;28;20252;-73
2023/03/19 09:52:33;;;;;;;5.73;5.33;;;;;;;13.49;88.65;96620.50;5092216;28;20276;-73
2023/03/19 09:55:12;;;;;;;6.10;5.60;;;;;;;13.71;88.06;96610.69;5072478;28;20181;-73
2023/03/19 09:57:37;;;;;;;6.27;5.87;;;;;;;13.75;87.78;96618.91;5054032;28;20645;-73
2023/03/19 10:00:23;;;;;;;6.90;6.17;;;;;;;13.93;86.52;96613.25;5071438;28;20276;-76
2023/03/19 10:02:54;;;;;;;8.97;8.23;;;;;;;14.20;84.40;96617.69;5072975;28;20574;-73
2023/03/19 10:05:50;;;;;;;6.77;6.27;;;;;;;14.51;81.66;96614.22;5072246;28;20249;-72
2023/03/19 10:08:32;;;;;;;9.30;8.67;;;;;;;14.67;78.93;96615.88;5071265;28;20668;-72
2023/03/19 10:11:02;;;;;;;11.83;11.13;;;;;;;14.35;79.24;96613.31;5053211;28;20238;-72
2023/03/19 10:13:58;;;;;;;16.73;15.63;;;;;;;13.96;79.09;96607.50;5072105;28;20189;-72
2023/03/19 10:16:27;;;;;;;15.50;14.60;;;;;;;14.03;80.68;96609.94;5072370;28;20208;-72
2023/03/19 10:18:58;;;;;;;24.20;22.80;;;;;;;14.03;79.74;96599.38;5072695;28;20592;-75
2023/03/19 10:21:36;;;;;;;44.20;41.80;;;;;;;14.23;77.92;96606.63;5075297;28;20188;-73
2023/03/19 10:24:30;;;;;;;47.93;45.13;;;;;;;14.35;76.06;96597.50;5075023;28;20181;-73
2023/03/19 10:27:01;;;;;;;39.70;36.93;;;;;;;14.41;76.00;96603.63;5048121;28;20229;-73
2023/03/19 10:29:27;;;;;;;37.33;35.33;;;;;;;14.55;75.65;96605.53;5073937;28;20227;-73
2023/03/19 10:32:15;;;;;;;10.87;10.13;;;;;;;14.53;74.29;96601.59;5068875;28;20447;-73
2023/03/19 10:34:42;;;;;;;7.33;6.90;;;;;;;14.45;75.23;96602.84;5080162;28;20186;-72
2023/03/19 10:37:15;;;;;;;9.03;8.30;;;;;;;14.55;74.79;96600.25;5079569;28;20251;-72
2023/03/19 10:39:43;;;;;;;19.53;18.23;;;;;;;14.61;73.57;96595.81;5096323;28;20183;-73
2023/03/19 10:42:20;;;;;;;23.93;22.63;;;;;;;14.68;73.45;96587.66;5074879;28;20212;-72
2023/03/19 10:45:10;;;;;;;22.10;20.70;;;;;;;14.78;73.44;96599.06;5077659;28;20200;-77
2023/03/19 10:47:40;;;;;;;19.77;18.53;;;;;;;14.97;71.65;96589.63;5061367;28;20204;-73
2023/03/19 10:50:13;;;;;;;13.27;12.37;;;;;;;15.08;67.60;96581.75;5076611;28;20199;-73
2023/03/19 10:52:41;;;;;;;10.43;9.57;;;;;;;15.13;66.57;96576.47;5081242;28;20185;-75
2023/03/19 10:55:16;;;;;;;21.33;20.13;;;;;;;15.02;63.57;96580.16;5079108;28;20184;-73
2023/03/19 10:57:43;;;;;;;19.00;17.70;;;;;;;15.05;61.50;96577.78;5085987;28;20719;-74
2023/03/19 11:00:16;;;;;;;19.20;18.20;;;;;;;15.25;61.12;96569.91;5076609;28;20234;-72
2023/03/19 11:02:54;;;;;;;20.45;19.38;;;;;;;15.30;58.71;96567.28;5074968;28;20291;-72
2023/03/19 11:05:27;;;;;;;12.02;11.23;;;;;;;15.51;58.39;96569.94;5078430;28;20169;-73
2023/03/19 11:08:00;;;;;;;7.97;7.32;;;;;;;15.67;56.72;96571.56;5093760;28;20185;-72
2023/03/19 11:10:28;;;;;;;4.85;4.55;;;;;;;15.68;56.43;96575.81;5080549;28;20638;-71
2023/03/19 11:13:02;;;;;;;4.47;4.18;;;;;;;15.61;55.69;96575.25;5076065;28;20181;-71
2023/03/19 11:15:36;;;;;;;6.35;5.70;;;;;;;15.84;55.63;96573.94;5065275;28;20272;-71
2023/03/19 11:18:22;;;;;;;6.67;5.53;;;;;;;15.65;56.13;96565.78;5068348;28;20597;-72
2023/03/19 11:20:54;;;;;;;5.80;5.30;;;;;;;15.99;55.32;96566.03;5090726;28;20172;-70
2023/03/19 11:23:20;;;;;;;6.40;5.90;;;;;;;15.91;54.71;96567.34;5095711;28;20530;-70
2023/03/19 11:25:50;;;;;;;6.43;6.03;;;;;;;16.16;54.96;96566.53;5083577;28;20213;-71
2023/03/19 11:28:20;;;;;;;5.45;5.05;;;;;;;16.52;53.46;96562.75;5075618;28;20308;-71